sensor_id;sensor_type;location;lat;lon;timestamp;temperature;humidity
41756;DHT22;27435;48.480;9.258;2023-07-24T00:01:09;20.80;77.10
41756;DHT22;27435;48.480;9.258;2023-07-24T00:03:34;20.80;77.00
41756;DHT22;27435;48.480;9.258;2023-07-24T00:06:01;20.70;77.60
41756;DHT22;27435;48.480;9.258;2023-07-24T00:08:26;20.60;78.50
41756;DHT22;27435;48.480;9.258;2023-07-24T00:10:52;20.60;78.30
41756;DHT22;27435;48.480;9.258;2023-07-24T00:13:17;20.70;78.10
41756;DHT22;27435;48.480;9.258;2023-07-24T00:15:43;20.60;78.90
41756;DHT22;27435;48.480;9.258;2023-07-24T00:18:09;20.40;79.60
41756;DHT22;27435;48.480;9.258;2023-07-24T00:20:34;20.40;80.10
41756;DHT22;27435;48.480;9.258;2023-07-24T00:23:00;20.30;80.30
41756;DHT22;27435;48.480;9.258;2023-07-24T00:25:25;20.20;80.60
41756;DHT22;27435;48.480;9.258;2023-07-24T00:27:51;20.10;81.20
41756;DHT22;27435;48.480;9.258;2023-07-24T00:30:17;19.80;82.00
41756;DHT22;27435;48.480;9.258;2023-07-24T00:32:42;19.80;82.00
41756;DHT22;27435;48.480;9.258;2023-07-24T00:35:08;20.00;81.50
41756;DHT22;27435;48.480;9.258;2023-07-24T00:37:34;20.10;81.50
41756;DHT22;27435;48.480;9.258;2023-07-24T00:39:59;19.90;80.50
41756;DHT22;27435;48.480;9.258;2023-07-24T00:42:25;19.90;79.90
41756;DHT22;27435;48.480;9.258;2023-07-24T00:44:51;19.90;79.40
41756;DHT22;27435;48.480;9.258;2023-07-24T00:47:17;19.90;79.10
41756;DHT22;27435;48.480;9.258;2023-07-24T00:49:43;19.90;79.20
41756;DHT22;27435;48.480;9.258;2023-07-24T00:52:09;19.60;80.40
41756;DHT22;27435;48.480;9.258;2023-07-24T00:54:34;19.70;80.10
41756;DHT22;27435;48.480;9.258;2023-07-24T00:57:01;19.40;80.50
41756;DHT22;27435;48.480;9.258;2023-07-24T00:59:27;19.40;81.00
41756;DHT22;27435;48.480;9.258;2023-07-24T01:01:52;19.30;81.10
41756;DHT22;27435;48.480;9.258;2023-07-24T01:04:18;19.30;81.20
41756;DHT22;27435;48.480;9.258;2023-07-24T01:06:45;19.20;82.20
41756;DHT22;27435;48.480;9.258;2023-07-24T01:09:10;19.10;82.00
41756;DHT22;27435;48.480;9.258;2023-07-24T01:11:40;19.20;81.90
41756;DHT22;27435;48.480;9.258;2023-07-24T01:14:09;18.90;82.50
41756;DHT22;27435;48.480;9.258;2023-07-24T01:16:37;18.80;83.00
41756;DHT22;27435;48.480;9.258;2023-07-24T01:19:12;18.80;83.10
41756;DHT22;27435;48.480;9.258;2023-07-24T01:21:49;18.80;83.80
41756;DHT22;27435;48.480;9.258;2023-07-24T01:24:30;18.70;84.90
41756;DHT22;27435;48.480;9.258;2023-07-24T01:26:57;18.70;85.60
41756;DHT22;27435;48.480;9.258;2023-07-24T01:29:23;18.70;85.70
41756;DHT22;27435;48.480;9.258;2023-07-24T01:31:48;18.70;86.20
41756;DHT22;27435;48.480;9.258;2023-07-24T01:34:14;18.60;86.60
41756;DHT22;27435;48.480;9.258;2023-07-24T01:36:40;18.50;86.50
41756;DHT22;27435;48.480;9.258;2023-07-24T01:39:06;18.40;86.60
41756;DHT22;27435;48.480;9.258;2023-07-24T01:41:32;18.20;87.70
41756;DHT22;27435;48.480;9.258;2023-07-24T01:44:01;18.10;88.10
41756;DHT22;27435;48.480;9.258;2023-07-24T01:46:27;18.10;88.20
41756;DHT22;27435;48.480;9.258;2023-07-24T01:48:52;18.10;88.50
41756;DHT22;27435;48.480;9.258;2023-07-24T01:51:18;18.20;88.40
41756;DHT22;27435;48.480;9.258;2023-07-24T01:53:43;18.40;87.60
41756;DHT22;27435;48.480;9.258;2023-07-24T01:56:09;18.40;87.60
41756;DHT22;27435;48.480;9.258;2023-07-24T01:58:34;18.40;88.10
41756;DHT22;27435;48.480;9.258;2023-07-24T02:01:00;18.40;87.90
41756;DHT22;27435;48.480;9.258;2023-07-24T02:03:26;18.40;88.10
41756;DHT22;27435;48.480;9.258;2023-07-24T02:05:51;18.30;87.80
41756;DHT22;27435;48.480;9.258;2023-07-24T02:08:17;18.20;88.60
41756;DHT22;27435;48.480;9.258;2023-07-24T02:10:43;18.10;89.30
41756;DHT22;27435;48.480;9.258;2023-07-24T02:13:08;17.90;89.70
41756;DHT22;27435;48.480;9.258;2023-07-24T02:15:34;17.60;91.10
41756;DHT22;27435;48.480;9.258;2023-07-24T02:18:00;17.50;90.90
41756;DHT22;27435;48.480;9.258;2023-07-24T02:20:26;17.50;91.40
41756;DHT22;27435;48.480;9.258;2023-07-24T02:22:52;17.50;91.20
41756;DHT22;27435;48.480;9.258;2023-07-24T02:25:17;17.50;91.40
41756;DHT22;27435;48.480;9.258;2023-07-24T02:27:43;17.50;90.60
41756;DHT22;27435;48.480;9.258;2023-07-24T02:30:09;17.50;90.50
41756;DHT22;27435;48.480;9.258;2023-07-24T02:32:34;17.50;90.40
41756;DHT22;27435;48.480;9.258;2023-07-24T02:35:00;17.50;90.70
41756;DHT22;27435;48.480;9.258;2023-07-24T02:37:25;17.50;90.80
41756;DHT22;27435;48.480;9.258;2023-07-24T02:39:52;17.50;90.60
41756;DHT22;27435;48.480;9.258;2023-07-24T02:42:18;17.60;90.10
41756;DHT22;27435;48.480;9.258;2023-07-24T02:44:44;17.70;89.80
41756;DHT22;27435;48.480;9.258;2023-07-24T02:47:09;17.60;90.10
41756;DHT22;27435;48.480;9.258;2023-07-24T02:49:35;17.40;90.70
41756;DHT22;27435;48.480;9.258;2023-07-24T02:52:00;17.40;90.60
41756;DHT22;27435;48.480;9.258;2023-07-24T02:54:26;17.50;90.80
41756;DHT22;27435;48.480;9.258;2023-07-24T02:56:52;17.70;90.00
41756;DHT22;27435;48.480;9.258;2023-07-24T02:59:18;17.80;89.70
41756;DHT22;27435;48.480;9.258;2023-07-24T03:01:43;17.80;89.80
41756;DHT22;27435;48.480;9.258;2023-07-24T03:04:09;18.10;89.20
41756;DHT22;27435;48.480;9.258;2023-07-24T03:06:35;18.10;89.00
41756;DHT22;27435;48.480;9.258;2023-07-24T03:09:01;18.10;88.60
41756;DHT22;27435;48.480;9.258;2023-07-24T03:11:26;18.00;89.70
41756;DHT22;27435;48.480;9.258;2023-07-24T03:13:52;18.10;89.50
41756;DHT22;27435;48.480;9.258;2023-07-24T03:16:17;18.20;89.50
41756;DHT22;27435;48.480;9.258;2023-07-24T03:18:44;18.10;89.80
41756;DHT22;27435;48.480;9.258;2023-07-24T03:21:10;18.30;89.80
41756;DHT22;27435;48.480;9.258;2023-07-24T03:23:36;18.40;89.20
41756;DHT22;27435;48.480;9.258;2023-07-24T03:26:01;18.40;89.10
41756;DHT22;27435;48.480;9.258;2023-07-24T03:28:27;18.40;89.40
41756;DHT22;27435;48.480;9.258;2023-07-24T03:30:53;18.50;89.00
41756;DHT22;27435;48.480;9.258;2023-07-24T03:33:18;18.50;89.60
41756;DHT22;27435;48.480;9.258;2023-07-24T03:35:44;18.50;89.50
41756;DHT22;27435;48.480;9.258;2023-07-24T03:38:09;18.50;89.60
41756;DHT22;27435;48.480;9.258;2023-07-24T03:40:35;18.40;89.90
41756;DHT22;27435;48.480;9.258;2023-07-24T03:43:00;18.40;90.00
41756;DHT22;27435;48.480;9.258;2023-07-24T03:45:26;18.40;90.10
41756;DHT22;27435;48.480;9.258;2023-07-24T03:47:52;18.40;90.40
41756;DHT22;27435;48.480;9.258;2023-07-24T03:50:17;18.40;90.70
41756;DHT22;27435;48.480;9.258;2023-07-24T03:52:43;18.40;90.60
41756;DHT22;27435;48.480;9.258;2023-07-24T03:55:08;18.50;90.40
41756;DHT22;27435;48.480;9.258;2023-07-24T03:57:35;18.60;90.00
41756;DHT22;27435;48.480;9.258;2023-07-24T04:00:02;18.70;89.70
41756;DHT22;27435;48.480;9.258;2023-07-24T04:02:27;18.80;89.30
41756;DHT22;27435;48.480;9.258;2023-07-24T04:04:53;19.10;88.60
41756;DHT22;27435;48.480;9.258;2023-07-24T04:07:19;19.10;88.30
41756;DHT22;27435;48.480;9.258;2023-07-24T04:09:44;19.20;88.20
41756;DHT22;27435;48.480;9.258;2023-07-24T04:12:10;19.30;87.80
41756;DHT22;27435;48.480;9.258;2023-07-24T04:14:35;19.30;87.60
41756;DHT22;27435;48.480;9.258;2023-07-24T04:17:01;19.40;87.30
41756;DHT22;27435;48.480;9.258;2023-07-24T04:19:27;19.50;87.10
41756;DHT22;27435;48.480;9.258;2023-07-24T04:21:52;19.60;86.60
41756;DHT22;27435;48.480;9.258;2023-07-24T04:24:18;19.70;86.40
41756;DHT22;27435;48.480;9.258;2023-07-24T04:26:43;19.90;86.10
41756;DHT22;27435;48.480;9.258;2023-07-24T04:29:09;20.00;85.50
41756;DHT22;27435;48.480;9.258;2023-07-24T04:31:34;20.10;85.20
41756;DHT22;27435;48.480;9.258;2023-07-24T04:34:00;20.20;84.90
41756;DHT22;27435;48.480;9.258;2023-07-24T04:36:26;20.30;84.70
41756;DHT22;27435;48.480;9.258;2023-07-24T04:38:51;20.40;84.30
41756;DHT22;27435;48.480;9.258;2023-07-24T04:41:17;20.50;84.10
41756;DHT22;27435;48.480;9.258;2023-07-24T04:43:42;20.60;83.60
41756;DHT22;27435;48.480;9.258;2023-07-24T04:46:08;20.60;83.70
41756;DHT22;27435;48.480;9.258;2023-07-24T04:48:33;20.70;83.50
41756;DHT22;27435;48.480;9.258;2023-07-24T04:50:59;20.70;83.60
41756;DHT22;27435;48.480;9.258;2023-07-24T04:53:25;20.70;83.70
41756;DHT22;27435;48.480;9.258;2023-07-24T04:55:50;20.60;84.00
41756;DHT22;27435;48.480;9.258;2023-07-24T04:58:16;20.70;83.90
41756;DHT22;27435;48.480;9.258;2023-07-24T05:00:42;20.90;83.50
41756;DHT22;27435;48.480;9.258;2023-07-24T05:03:08;21.00;83.10
41756;DHT22;27435;48.480;9.258;2023-07-24T05:05:37;20.90;83.40
41756;DHT22;27435;48.480;9.258;2023-07-24T05:08:03;20.90;83.30
41756;DHT22;27435;48.480;9.258;2023-07-24T05:10:28;21.00;83.50
41756;DHT22;27435;48.480;9.258;2023-07-24T05:12:54;21.10;83.10
41756;DHT22;27435;48.480;9.258;2023-07-24T05:15:22;21.10;83.00
41756;DHT22;27435;48.480;9.258;2023-07-24T05:17:47;21.20;82.80
41756;DHT22;27435;48.480;9.258;2023-07-24T05:20:13;21.30;82.50
41756;DHT22;27435;48.480;9.258;2023-07-24T05:22:39;21.50;82.20
41756;DHT22;27435;48.480;9.258;2023-07-24T05:25:05;21.60;82.00
41756;DHT22;27435;48.480;9.258;2023-07-24T05:27:30;21.80;81.20
41756;DHT22;27435;48.480;9.258;2023-07-24T05:29:56;22.00;80.70
41756;DHT22;27435;48.480;9.258;2023-07-24T05:32:21;21.90;80.50
41756;DHT22;27435;48.480;9.258;2023-07-24T05:34:47;22.00;80.50
41756;DHT22;27435;48.480;9.258;2023-07-24T05:37:12;22.20;80.00
41756;DHT22;27435;48.480;9.258;2023-07-24T05:39:38;22.20;79.80
41756;DHT22;27435;48.480;9.258;2023-07-24T05:42:04;22.10;80.10
41756;DHT22;27435;48.480;9.258;2023-07-24T05:44:30;22.10;80.30
41756;DHT22;27435;48.480;9.258;2023-07-24T05:46:55;22.00;80.40
41756;DHT22;27435;48.480;9.258;2023-07-24T05:49:21;22.00;80.70
41756;DHT22;27435;48.480;9.258;2023-07-24T05:51:46;21.90;81.00
41756;DHT22;27435;48.480;9.258;2023-07-24T05:54:12;21.90;80.90
41756;DHT22;27435;48.480;9.258;2023-07-24T05:56:38;22.00;81.10
41756;DHT22;27435;48.480;9.258;2023-07-24T05:59:03;21.80;81.10
41756;DHT22;27435;48.480;9.258;2023-07-24T06:01:29;21.70;81.40
41756;DHT22;27435;48.480;9.258;2023-07-24T06:03:54;21.60;82.10
41756;DHT22;27435;48.480;9.258;2023-07-24T06:06:20;21.50;82.10
41756;DHT22;27435;48.480;9.258;2023-07-24T06:08:45;21.50;82.40
41756;DHT22;27435;48.480;9.258;2023-07-24T06:11:12;21.50;82.90
41756;DHT22;27435;48.480;9.258;2023-07-24T06:13:38;21.60;82.70
41756;DHT22;27435;48.480;9.258;2023-07-24T06:16:04;21.50;83.20
41756;DHT22;27435;48.480;9.258;2023-07-24T06:18:29;21.50;83.60
41756;DHT22;27435;48.480;9.258;2023-07-24T06:20:55;21.50;83.40
41756;DHT22;27435;48.480;9.258;2023-07-24T06:23:21;21.70;82.80
41756;DHT22;27435;48.480;9.258;2023-07-24T06:25:46;21.70;83.20
41756;DHT22;27435;48.480;9.258;2023-07-24T06:28:12;21.70;84.00
41756;DHT22;27435;48.480;9.258;2023-07-24T06:43:28;21.70;84.20
41756;DHT22;27435;48.480;9.258;2023-07-24T06:45:54;22.40;83.40
41756;DHT22;27435;48.480;9.258;2023-07-24T06:48:20;22.40;83.50
41756;DHT22;27435;48.480;9.258;2023-07-24T06:50:45;22.50;83.90
41756;DHT22;27435;48.480;9.258;2023-07-24T06:53:11;22.40;84.20
41756;DHT22;27435;48.480;9.258;2023-07-24T06:55:37;22.50;84.30
41756;DHT22;27435;48.480;9.258;2023-07-24T06:58:02;22.50;84.40
41756;DHT22;27435;48.480;9.258;2023-07-24T07:00:28;22.60;84.40
41756;DHT22;27435;48.480;9.258;2023-07-24T07:02:53;22.70;84.30
41756;DHT22;27435;48.480;9.258;2023-07-24T07:05:19;22.80;83.90
41756;DHT22;27435;48.480;9.258;2023-07-24T07:07:45;22.90;83.40
41756;DHT22;27435;48.480;9.258;2023-07-24T07:10:10;22.90;83.80
41756;DHT22;27435;48.480;9.258;2023-07-24T07:12:36;22.80;84.40
41756;DHT22;27435;48.480;9.258;2023-07-24T07:15:02;22.80;84.30
41756;DHT22;27435;48.480;9.258;2023-07-24T07:17:27;22.80;84.60
41756;DHT22;27435;48.480;9.258;2023-07-24T07:19:53;22.90;83.70
41756;DHT22;27435;48.480;9.258;2023-07-24T07:22:21;22.90;83.60
41756;DHT22;27435;48.480;9.258;2023-07-24T07:24:47;23.10;83.00
41756;DHT22;27435;48.480;9.258;2023-07-24T07:27:13;23.20;82.90
41756;DHT22;27435;48.480;9.258;2023-07-24T07:29:42;23.50;81.60
41756;DHT22;27435;48.480;9.258;2023-07-24T07:32:08;23.90;80.30
41756;DHT22;27435;48.480;9.258;2023-07-24T07:34:34;24.20;79.00
41756;DHT22;27435;48.480;9.258;2023-07-24T07:37:01;24.40;77.90
41756;DHT22;27435;48.480;9.258;2023-07-24T07:39:27;24.50;77.00
41756;DHT22;27435;48.480;9.258;2023-07-24T07:41:52;24.80;75.50
41756;DHT22;27435;48.480;9.258;2023-07-24T07:44:18;25.30;74.50
41756;DHT22;27435;48.480;9.258;2023-07-24T07:46:44;25.50;73.70
41756;DHT22;27435;48.480;9.258;2023-07-24T07:49:09;25.70;73.10
41756;DHT22;27435;48.480;9.258;2023-07-24T07:51:35;25.70;72.30
41756;DHT22;27435;48.480;9.258;2023-07-24T07:54:00;25.40;72.20
41756;DHT22;27435;48.480;9.258;2023-07-24T07:56:26;25.00;72.90
41756;DHT22;27435;48.480;9.258;2023-07-24T07:58:51;24.70;72.10
41756;DHT22;27435;48.480;9.258;2023-07-24T08:01:17;24.60;73.70
41756;DHT22;27435;48.480;9.258;2023-07-24T08:03:43;24.40;71.60
41756;DHT22;27435;48.480;9.258;2023-07-24T08:06:08;24.20;70.60
41756;DHT22;27435;48.480;9.258;2023-07-24T08:08:34;24.20;69.80
41756;DHT22;27435;48.480;9.258;2023-07-24T08:11:04;24.20;69.10
41756;DHT22;27435;48.480;9.258;2023-07-24T08:13:30;24.30;68.70
41756;DHT22;27435;48.480;9.258;2023-07-24T08:15:56;24.20;69.20
41756;DHT22;27435;48.480;9.258;2023-07-24T08:18:21;24.40;68.90
41756;DHT22;27435;48.480;9.258;2023-07-24T08:20:47;24.60;68.50
41756;DHT22;27435;48.480;9.258;2023-07-24T08:23:13;24.60;68.20
41756;DHT22;27435;48.480;9.258;2023-07-24T08:25:38;24.70;68.40
41756;DHT22;27435;48.480;9.258;2023-07-24T08:28:04;24.50;69.10
41756;DHT22;27435;48.480;9.258;2023-07-24T08:30:30;24.20;70.00
41756;DHT22;27435;48.480;9.258;2023-07-24T08:32:57;24.00;70.80
41756;DHT22;27435;48.480;9.258;2023-07-24T08:35:23;23.80;71.70
41756;DHT22;27435;48.480;9.258;2023-07-24T08:37:48;23.70;72.70
41756;DHT22;27435;48.480;9.258;2023-07-24T08:40:15;23.90;71.80
41756;DHT22;27435;48.480;9.258;2023-07-24T08:42:43;24.30;71.00
41756;DHT22;27435;48.480;9.258;2023-07-24T08:45:12;24.60;70.10
41756;DHT22;27435;48.480;9.258;2023-07-24T08:47:42;24.60;70.00
41756;DHT22;27435;48.480;9.258;2023-07-24T08:50:09;24.30;71.30
41756;DHT22;27435;48.480;9.258;2023-07-24T08:52:37;24.10;71.80
41756;DHT22;27435;48.480;9.258;2023-07-24T08:55:05;24.00;71.50
41756;DHT22;27435;48.480;9.258;2023-07-24T08:57:30;24.10;71.80
41756;DHT22;27435;48.480;9.258;2023-07-24T08:59:56;24.30;72.50
41756;DHT22;27435;48.480;9.258;2023-07-24T09:02:23;24.50;73.00
41756;DHT22;27435;48.480;9.258;2023-07-24T09:04:48;24.50;74.40
41756;DHT22;27435;48.480;9.258;2023-07-24T09:07:14;24.50;75.00
41756;DHT22;27435;48.480;9.258;2023-07-24T09:09:40;24.70;74.90
41756;DHT22;27435;48.480;9.258;2023-07-24T09:12:06;24.60;74.70
41756;DHT22;27435;48.480;9.258;2023-07-24T09:14:31;24.70;74.30
41756;DHT22;27435;48.480;9.258;2023-07-24T09:17:04;24.80;73.60
41756;DHT22;27435;48.480;9.258;2023-07-24T09:19:30;24.80;73.80
41756;DHT22;27435;48.480;9.258;2023-07-24T09:21:55;24.70;73.70
41756;DHT22;27435;48.480;9.258;2023-07-24T09:24:21;24.70;74.10
41756;DHT22;27435;48.480;9.258;2023-07-24T09:26:51;24.50;74.70
41756;DHT22;27435;48.480;9.258;2023-07-24T09:29:17;24.30;74.60
41756;DHT22;27435;48.480;9.258;2023-07-24T09:31:44;23.80;76.60
41756;DHT22;27435;48.480;9.258;2023-07-24T09:34:18;23.90;76.20
41756;DHT22;27435;48.480;9.258;2023-07-24T09:36:44;23.90;76.30
41756;DHT22;27435;48.480;9.258;2023-07-24T09:39:10;23.90;76.10
41756;DHT22;27435;48.480;9.258;2023-07-24T09:41:40;23.80;76.70
41756;DHT22;27435;48.480;9.258;2023-07-24T09:44:07;23.50;76.90
41756;DHT22;27435;48.480;9.258;2023-07-24T09:46:32;23.50;77.50
41756;DHT22;27435;48.480;9.258;2023-07-24T09:48:58;23.60;77.80
41756;DHT22;27435;48.480;9.258;2023-07-24T09:51:25;23.60;78.80
41756;DHT22;27435;48.480;9.258;2023-07-24T09:56:27;24.10;77.40
41756;DHT22;27435;48.480;9.258;2023-07-24T09:58:54;24.10;78.00
41756;DHT22;27435;48.480;9.258;2023-07-24T10:01:21;24.10;79.50
41756;DHT22;27435;48.480;9.258;2023-07-24T10:03:49;24.00;79.90
41756;DHT22;27435;48.480;9.258;2023-07-24T10:06:16;23.90;83.00
41756;DHT22;27435;48.480;9.258;2023-07-24T10:08:42;23.70;82.60
41756;DHT22;27435;48.480;9.258;2023-07-24T10:11:13;23.50;83.10
41756;DHT22;27435;48.480;9.258;2023-07-24T10:13:40;23.40;83.40
41756;DHT22;27435;48.480;9.258;2023-07-24T10:16:06;23.30;84.20
41756;DHT22;27435;48.480;9.258;2023-07-24T10:18:34;23.20;84.70
41756;DHT22;27435;48.480;9.258;2023-07-24T10:21:10;22.90;85.50
41756;DHT22;27435;48.480;9.258;2023-07-24T10:23:43;22.30;89.60
41756;DHT22;27435;48.480;9.258;2023-07-24T10:26:10;21.70;93.80
41756;DHT22;27435;48.480;9.258;2023-07-24T10:28:37;21.00;96.80
41756;DHT22;27435;48.480;9.258;2023-07-24T10:31:23;20.60;98.30
41756;DHT22;27435;48.480;9.258;2023-07-24T10:33:49;20.30;99.00
41756;DHT22;27435;48.480;9.258;2023-07-24T10:36:22;20.00;99.00
41756;DHT22;27435;48.480;9.258;2023-07-24T10:38:53;19.80;99.00
41756;DHT22;27435;48.480;9.258;2023-07-24T10:41:19;19.70;99.00
41756;DHT22;27435;48.480;9.258;2023-07-24T10:43:50;19.60;99.00
41756;DHT22;27435;48.480;9.258;2023-07-24T10:46:18;19.40;99.00
41756;DHT22;27435;48.480;9.258;2023-07-24T10:48:49;19.20;99.00
41756;DHT22;27435;48.480;9.258;2023-07-24T10:51:15;19.00;99.00
41756;DHT22;27435;48.480;9.258;2023-07-24T10:53:46;19.00;99.00
41756;DHT22;27435;48.480;9.258;2023-07-24T10:56:12;19.00;99.00
41756;DHT22;27435;48.480;9.258;2023-07-24T10:58:38;19.10;99.00
41756;DHT22;27435;48.480;9.258;2023-07-24T11:01:05;19.20;99.00
41756;DHT22;27435;48.480;9.258;2023-07-24T11:03:31;19.40;99.00
41756;DHT22;27435;48.480;9.258;2023-07-24T11:05:58;19.40;99.00
41756;DHT22;27435;48.480;9.258;2023-07-24T11:08:24;19.40;99.00
41756;DHT22;27435;48.480;9.258;2023-07-24T11:10:51;19.40;99.00
41756;DHT22;27435;48.480;9.258;2023-07-24T11:13:19;19.40;99.00
41756;DHT22;27435;48.480;9.258;2023-07-24T11:15:45;19.30;99.00
41756;DHT22;27435;48.480;9.258;2023-07-24T11:18:11;19.30;99.00
41756;DHT22;27435;48.480;9.258;2023-07-24T11:20:38;19.40;99.00
41756;DHT22;27435;48.480;9.258;2023-07-24T11:23:04;19.60;99.00
41756;DHT22;27435;48.480;9.258;2023-07-24T11:25:30;19.70;99.00
41756;DHT22;27435;48.480;9.258;2023-07-24T11:27:55;19.70;99.00
41756;DHT22;27435;48.480;9.258;2023-07-24T11:30:21;19.80;99.00
41756;DHT22;27435;48.480;9.258;2023-07-24T11:32:48;20.00;99.00
41756;DHT22;27435;48.480;9.258;2023-07-24T11:35:14;20.50;99.00
41756;DHT22;27435;48.480;9.258;2023-07-24T11:37:40;21.10;99.00
41756;DHT22;27435;48.480;9.258;2023-07-24T11:40:06;21.80;99.00
41756;DHT22;27435;48.480;9.258;2023-07-24T11:42:42;22.20;99.00
41756;DHT22;27435;48.480;9.258;2023-07-24T11:45:08;22.40;98.60
41756;DHT22;27435;48.480;9.258;2023-07-24T11:47:45;22.80;99.00
41756;DHT22;27435;48.480;9.258;2023-07-24T11:50:11;23.10;97.70
41756;DHT22;27435;48.480;9.258;2023-07-24T11:52:38;23.20;96.80
41756;DHT22;27435;48.480;9.258;2023-07-24T11:55:05;23.20;94.20
41756;DHT22;27435;48.480;9.258;2023-07-24T11:57:30;23.20;94.20
41756;DHT22;27435;48.480;9.258;2023-07-24T11:59:56;23.10;94.10
41756;DHT22;27435;48.480;9.258;2023-07-24T12:02:28;23.00;92.60
41756;DHT22;27435;48.480;9.258;2023-07-24T12:04:55;23.30;92.60
41756;DHT22;27435;48.480;9.258;2023-07-24T12:07:28;23.40;91.10
41756;DHT22;27435;48.480;9.258;2023-07-24T12:09:53;23.50;90.50
41756;DHT22;27435;48.480;9.258;2023-07-24T12:12:19;23.80;89.20
41756;DHT22;27435;48.480;9.258;2023-07-24T12:14:45;23.70;89.10
41756;DHT22;27435;48.480;9.258;2023-07-24T12:17:10;23.60;90.10
41756;DHT22;27435;48.480;9.258;2023-07-24T12:19:39;23.40;89.50
41756;DHT22;27435;48.480;9.258;2023-07-24T12:22:05;23.60;89.00
41756;DHT22;27435;48.480;9.258;2023-07-24T12:24:30;24.00;84.40
41756;DHT22;27435;48.480;9.258;2023-07-24T12:26:56;24.50;83.00
41756;DHT22;27435;48.480;9.258;2023-07-24T12:29:22;24.90;81.70
41756;DHT22;27435;48.480;9.258;2023-07-24T12:31:47;25.20;80.00
41756;DHT22;27435;48.480;9.258;2023-07-24T12:34:13;25.60;77.70
41756;DHT22;27435;48.480;9.258;2023-07-24T12:36:38;26.00;75.80
41756;DHT22;27435;48.480;9.258;2023-07-24T12:39:04;26.00;75.20
41756;DHT22;27435;48.480;9.258;2023-07-24T12:41:30;25.90;76.80
41756;DHT22;27435;48.480;9.258;2023-07-24T12:43:55;26.10;77.80
41756;DHT22;27435;48.480;9.258;2023-07-24T12:46:21;26.00;76.70
41756;DHT22;27435;48.480;9.258;2023-07-24T12:48:47;26.40;76.30
41756;DHT22;27435;48.480;9.258;2023-07-24T12:51:12;26.90;74.60
41756;DHT22;27435;48.480;9.258;2023-07-24T12:53:38;27.00;72.60
41756;DHT22;27435;48.480;9.258;2023-07-24T12:56:03;26.90;73.50
41756;DHT22;27435;48.480;9.258;2023-07-24T12:58:29;26.80;74.00
41756;DHT22;27435;48.480;9.258;2023-07-24T13:00:55;26.60;73.80
41756;DHT22;27435;48.480;9.258;2023-07-24T13:03:20;26.80;71.20
41756;DHT22;27435;48.480;9.258;2023-07-24T13:05:47;26.80;70.80
41756;DHT22;27435;48.480;9.258;2023-07-24T13:08:13;27.10;71.10
41756;DHT22;27435;48.480;9.258;2023-07-24T13:10:38;27.60;71.10
41756;DHT22;27435;48.480;9.258;2023-07-24T13:13:04;27.50;70.70
41756;DHT22;27435;48.480;9.258;2023-07-24T13:15:29;27.40;71.30
41756;DHT22;27435;48.480;9.258;2023-07-24T13:17:57;27.40;69.40
41756;DHT22;27435;48.480;9.258;2023-07-24T13:20:24;26.90;67.90
41756;DHT22;27435;48.480;9.258;2023-07-24T13:22:49;26.60;69.70
41756;DHT22;27435;48.480;9.258;2023-07-24T13:25:15;26.20;70.50
41756;DHT22;27435;48.480;9.258;2023-07-24T13:27:40;26.20;71.80
41756;DHT22;27435;48.480;9.258;2023-07-24T13:30:06;25.70;71.20
41756;DHT22;27435;48.480;9.258;2023-07-24T13:32:32;25.40;72.80
41756;DHT22;27435;48.480;9.258;2023-07-24T13:34:58;24.50;73.50
41756;DHT22;27435;48.480;9.258;2023-07-24T13:37:25;24.00;74.70
41756;DHT22;27435;48.480;9.258;2023-07-24T13:39:51;23.80;75.70
41756;DHT22;27435;48.480;9.258;2023-07-24T13:42:17;23.80;76.20
41756;DHT22;27435;48.480;9.258;2023-07-24T13:44:42;23.60;76.90
41756;DHT22;27435;48.480;9.258;2023-07-24T13:47:08;23.60;78.10
41756;DHT22;27435;48.480;9.258;2023-07-24T13:49:34;23.70;78.80
41756;DHT22;27435;48.480;9.258;2023-07-24T13:51:59;23.80;79.30
41756;DHT22;27435;48.480;9.258;2023-07-24T13:54:25;23.80;79.20
41756;DHT22;27435;48.480;9.258;2023-07-24T13:56:50;23.60;80.20
41756;DHT22;27435;48.480;9.258;2023-07-24T13:59:16;23.70;79.00
41756;DHT22;27435;48.480;9.258;2023-07-24T14:01:42;23.60;79.30
41756;DHT22;27435;48.480;9.258;2023-07-24T14:04:07;23.60;80.20
41756;DHT22;27435;48.480;9.258;2023-07-24T14:06:33;23.70;80.70
41756;DHT22;27435;48.480;9.258;2023-07-24T14:08:58;23.70;83.00
41756;DHT22;27435;48.480;9.258;2023-07-24T14:11:24;23.60;84.60
41756;DHT22;27435;48.480;9.258;2023-07-24T14:13:52;23.30;84.30
41756;DHT22;27435;48.480;9.258;2023-07-24T14:16:17;23.10;84.90
41756;DHT22;27435;48.480;9.258;2023-07-24T14:18:43;22.90;84.80
41756;DHT22;27435;48.480;9.258;2023-07-24T14:21:08;22.70;85.70
41756;DHT22;27435;48.480;9.258;2023-07-24T14:23:35;22.40;86.80
41756;DHT22;27435;48.480;9.258;2023-07-24T14:26:00;22.20;89.40
41756;DHT22;27435;48.480;9.258;2023-07-24T14:28:26;21.90;91.40
41756;DHT22;27435;48.480;9.258;2023-07-24T14:30:52;21.60;92.80
41756;DHT22;27435;48.480;9.258;2023-07-24T14:33:17;21.60;95.70
41756;DHT22;27435;48.480;9.258;2023-07-24T14:35:43;21.50;94.40
41756;DHT22;27435;48.480;9.258;2023-07-24T14:38:09;21.20;99.00
41756;DHT22;27435;48.480;9.258;2023-07-24T14:40:34;21.00;99.00
41756;DHT22;27435;48.480;9.258;2023-07-24T14:43:00;20.70;99.00
41756;DHT22;27435;48.480;9.258;2023-07-24T14:45:26;20.50;99.00
41756;DHT22;27435;48.480;9.258;2023-07-24T14:47:51;20.30;99.00
41756;DHT22;27435;48.480;9.258;2023-07-24T14:50:17;20.30;99.00
41756;DHT22;27435;48.480;9.258;2023-07-24T14:52:42;20.40;99.00
41756;DHT22;27435;48.480;9.258;2023-07-24T14:55:09;20.50;99.00
41756;DHT22;27435;48.480;9.258;2023-07-24T14:57:35;20.60;99.00
41756;DHT22;27435;48.480;9.258;2023-07-24T15:00:01;20.70;99.00
41756;DHT22;27435;48.480;9.258;2023-07-24T15:02:27;20.70;99.00
41756;DHT22;27435;48.480;9.258;2023-07-24T15:04:52;20.70;99.00
41756;DHT22;27435;48.480;9.258;2023-07-24T15:07:18;20.60;99.00
41756;DHT22;27435;48.480;9.258;2023-07-24T15:09:43;20.40;99.00
41756;DHT22;27435;48.480;9.258;2023-07-24T15:12:09;20.30;99.00
41756;DHT22;27435;48.480;9.258;2023-07-24T15:14:35;20.20;99.00
41756;DHT22;27435;48.480;9.258;2023-07-24T15:17:00;20.00;99.00
41756;DHT22;27435;48.480;9.258;2023-07-24T15:19:26;20.00;99.00
41756;DHT22;27435;48.480;9.258;2023-07-24T15:21:51;20.20;99.00
41756;DHT22;27435;48.480;9.258;2023-07-24T15:24:17;20.80;99.00
41756;DHT22;27435;48.480;9.258;2023-07-24T15:26:44;21.80;99.00
41756;DHT22;27435;48.480;9.258;2023-07-24T15:29:10;21.80;99.00
41756;DHT22;27435;48.480;9.258;2023-07-24T15:31:36;21.90;99.00
41756;DHT22;27435;48.480;9.258;2023-07-24T15:34:02;21.80;99.00
41756;DHT22;27435;48.480;9.258;2023-07-24T15:36:30;22.10;99.00
41756;DHT22;27435;48.480;9.258;2023-07-24T15:38:56;22.00;98.90